sensor_id;sensor_type;location;lat;lon;timestamp;pressure;altitude;pressure_sealevel;temperature;humidity
80693;BME280;70055;39.436;-77.514;2024-02-04T00:00:41;99565.10;;;3.25;37.16
80693;BME280;70055;39.436;-77.514;2024-02-04T00:03:09;99562.81;;;3.78;36.46
80693;BME280;70055;39.436;-77.514;2024-02-04T00:05:36;99569.87;;;1.58;39.81
80693;BME280;70055;39.436;-77.514;2024-02-04T00:08:04;99568.44;;;2.01;39.66
80693;BME280;70055;39.436;-77.514;2024-02-04T00:10:35;99563.35;;;2.58;39.29
80693;BME280;70055;39.436;-77.514;2024-02-04T00:13:03;99562.10;;;4.16;36.43
80693;BME280;70055;39.436;-77.514;2024-02-04T00:15:31;99562.47;;;3.48;37.30
80693;BME280;70055;39.436;-77.514;2024-02-04T00:18:00;99561.40;;;3.95;36.80
80693;BME280;70055;39.436;-77.514;2024-02-04T00:20:28;99559.23;;;4.71;35.56
80693;BME280;70055;39.436;-77.514;2024-02-04T00:22:57;99561.88;;;3.75;36.42
80693;BME280;70055;39.436;-77.514;2024-02-04T00:25:25;99565.07;;;4.08;35.76
80693;BME280;70055;39.436;-77.514;2024-02-04T00:27:53;99563.83;;;4.32;35.05
80693;BME280;70055;39.436;-77.514;2024-02-04T00:30:22;99564.36;;;4.86;34.15
80693;BME280;70055;39.436;-77.514;2024-02-04T00:32:50;99570.22;;;3.54;35.89
80693;BME280;70055;39.436;-77.514;2024-02-04T00:35:19;99570.60;;;3.64;35.86
80693;BME280;70055;39.436;-77.514;2024-02-04T00:37:48;99572.01;;;3.01;37.75
80693;BME280;70055;39.436;-77.514;2024-02-04T00:40:16;99570.71;;;3.58;37.14
80693;BME280;70055;39.436;-77.514;2024-02-04T00:42:43;99572.86;;;2.31;39.27
80693;BME280;70055;39.436;-77.514;2024-02-04T00:45:11;99584.07;;;0.21;43.39
80693;BME280;70055;39.436;-77.514;2024-02-04T00:47:40;99578.92;;;2.45;40.37
80693;BME280;70055;39.436;-77.514;2024-02-04T00:50:08;99576.44;;;3.55;38.11
80693;BME280;70055;39.436;-77.514;2024-02-04T00:52:38;99584.97;;;3.07;38.00
80693;BME280;70055;39.436;-77.514;2024-02-04T00:55:10;99584.25;;;3.36;37.61
80693;BME280;70055;39.436;-77.514;2024-02-04T00:57:38;99584.27;;;3.56;37.86
80693;BME280;70055;39.436;-77.514;2024-02-04T01:00:07;99590.61;;;2.13;40.26
80693;BME280;70055;39.436;-77.514;2024-02-04T01:02:35;99591.62;;;1.90;40.62
80693;BME280;70055;39.436;-77.514;2024-02-04T01:05:05;99596.92;;;1.30;41.22
80693;BME280;70055;39.436;-77.514;2024-02-04T01:07:33;99595.82;;;1.25;42.20
80693;BME280;70055;39.436;-77.514;2024-02-04T01:10:01;99594.55;;;2.26;40.16
80693;BME280;70055;39.436;-77.514;2024-02-04T01:12:33;99592.50;;;2.81;38.72
80693;BME280;70055;39.436;-77.514;2024-02-04T01:15:00;99595.09;;;2.48;38.62
80693;BME280;70055;39.436;-77.514;2024-02-04T01:17:29;99599.63;;;2.78;38.74
80693;BME280;70055;39.436;-77.514;2024-02-04T01:19:57;99597.34;;;3.07;37.80
80693;BME280;70055;39.436;-77.514;2024-02-04T01:22:26;99597.51;;;3.26;38.11
80693;BME280;70055;39.436;-77.514;2024-02-04T01:24:54;99598.38;;;2.69;38.37
80693;BME280;70055;39.436;-77.514;2024-02-04T01:27:22;99594.41;;;3.02;37.61
80693;BME280;70055;39.436;-77.514;2024-02-04T01:29:50;99595.00;;;2.72;37.92
80693;BME280;70055;39.436;-77.514;2024-02-04T01:32:20;99594.83;;;3.02;37.46
80693;BME280;70055;39.436;-77.514;2024-02-04T01:34:48;99594.00;;;3.13;37.16
80693;BME280;70055;39.436;-77.514;2024-02-04T01:37:17;99598.91;;;2.99;37.31
80693;BME280;70055;39.436;-77.514;2024-02-04T01:39:45;99604.19;;;2.71;38.23
80693;BME280;70055;39.436;-77.514;2024-02-04T01:42:15;99602.99;;;2.96;37.74
80693;BME280;70055;39.436;-77.514;2024-02-04T01:44:43;99603.52;;;3.27;37.10
80693;BME280;70055;39.436;-77.514;2024-02-04T01:47:11;99614.57;;;1.33;40.17
80693;BME280;70055;39.436;-77.514;2024-02-04T01:49:40;99606.58;;;2.38;38.72
80693;BME280;70055;39.436;-77.514;2024-02-04T01:52:12;99612.62;;;1.05;41.53
80693;BME280;70055;39.436;-77.514;2024-02-04T01:54:42;99612.96;;;0.93;41.48
80693;BME280;70055;39.436;-77.514;2024-02-04T01:57:11;99611.40;;;0.77;43.10
80693;BME280;70055;39.436;-77.514;2024-02-04T01:59:41;99612.84;;;1.38;41.74
80693;BME280;70055;39.436;-77.514;2024-02-04T02:02:09;99612.09;;;2.02;39.52
80693;BME280;70055;39.436;-77.514;2024-02-04T02:04:40;99609.83;;;2.23;39.06
80693;BME280;70055;39.436;-77.514;2024-02-04T02:07:09;99605.74;;;2.56;38.54
80693;BME280;70055;39.436;-77.514;2024-02-04T02:09:38;99604.53;;;2.81;37.83
80693;BME280;70055;39.436;-77.514;2024-02-04T02:12:09;99615.75;;;1.22;41.03
80693;BME280;70055;39.436;-77.514;2024-02-04T02:14:41;99613.91;;;1.61;39.99
80693;BME280;70055;39.436;-77.514;2024-02-04T02:17:14;99604.33;;;2.45;38.84
80693;BME280;70055;39.436;-77.514;2024-02-04T02:19:50;99604.28;;;2.48;38.59
80693;BME280;70055;39.436;-77.514;2024-02-04T02:22:28;99612.03;;;1.62;40.50
80693;BME280;70055;39.436;-77.514;2024-02-04T02:24:57;99608.76;;;2.16;39.68
80693;BME280;70055;39.436;-77.514;2024-02-04T02:27:25;99606.22;;;2.33;39.18
80693;BME280;70055;39.436;-77.514;2024-02-04T02:29:54;99617.79;;;1.17;40.99
80693;BME280;70055;39.436;-77.514;2024-02-04T02:32:22;99608.07;;;2.87;37.61
80693;BME280;70055;39.436;-77.514;2024-02-04T02:34:50;99617.70;;;1.96;38.77
80693;BME280;70055;39.436;-77.514;2024-02-04T02:37:26;99620.26;;;2.11;38.85
80693;BME280;70055;39.436;-77.514;2024-02-04T02:40:01;99616.96;;;2.02;40.06
80693;BME280;70055;39.436;-77.514;2024-02-04T02:42:31;99617.32;;;2.18;39.74
80693;BME280;70055;39.436;-77.514;2024-02-04T02:45:02;99619.41;;;2.42;39.13
80693;BME280;70055;39.436;-77.514;2024-02-04T02:47:30;99620.84;;;2.39;39.15
80693;BME280;70055;39.436;-77.514;2024-02-04T02:50:01;99625.64;;;1.03;41.64
80693;BME280;70055;39.436;-77.514;2024-02-04T02:52:29;99626.49;;;1.23;41.25
80693;BME280;70055;39.436;-77.514;2024-02-04T02:54:57;99632.47;;;0.09;42.75
80693;BME280;70055;39.436;-77.514;2024-02-04T02:57:26;99633.54;;;0.95;41.52
80693;BME280;70055;39.436;-77.514;2024-02-04T02:59:56;99636.32;;;1.72;39.83
80693;BME280;70055;39.436;-77.514;2024-02-04T03:02:24;99635.98;;;1.83;40.53
80693;BME280;70055;39.436;-77.514;2024-02-04T03:04:52;99632.69;;;2.12;39.40
80693;BME280;70055;39.436;-77.514;2024-02-04T03:07:21;99631.30;;;1.77;39.30
80693;BME280;70055;39.436;-77.514;2024-02-04T03:09:49;99633.40;;;2.30;39.09
80693;BME280;70055;39.436;-77.514;2024-02-04T03:12:16;99632.40;;;1.18;40.32
80693;BME280;70055;39.436;-77.514;2024-02-04T03:14:44;99632.01;;;-0.00;43.33
80693;BME280;70055;39.436;-77.514;2024-02-04T03:17:13;99629.13;;;0.66;43.16
80693;BME280;70055;39.436;-77.514;2024-02-04T03:19:41;99628.83;;;1.15;41.66
80693;BME280;70055;39.436;-77.514;2024-02-04T03:22:10;99629.34;;;1.28;41.39
80693;BME280;70055;39.436;-77.514;2024-02-04T03:24:40;99627.07;;;1.36;41.11
80693;BME280;70055;39.436;-77.514;2024-02-04T03:27:08;99628.81;;;0.91;41.21
80693;BME280;70055;39.436;-77.514;2024-02-04T03:29:36;99625.04;;;0.15;42.39
80693;BME280;70055;39.436;-77.514;2024-02-04T03:32:05;99620.04;;;-0.17;43.47
80693;BME280;70055;39.436;-77.514;2024-02-04T03:34:33;99617.38;;;0.19;43.01
80693;BME280;70055;39.436;-77.514;2024-02-04T03:37:00;99608.20;;;0.65;41.67
80693;BME280;70055;39.436;-77.514;2024-02-04T03:39:28;99612.54;;;1.99;39.68
80693;BME280;70055;39.436;-77.514;2024-02-04T03:41:56;99614.38;;;1.24;40.10
80693;BME280;70055;39.436;-77.514;2024-02-04T03:44:26;99616.69;;;1.84;39.40
80693;BME280;70055;39.436;-77.514;2024-02-04T03:46:54;99614.16;;;2.20;39.41
80693;BME280;70055;39.436;-77.514;2024-02-04T03:49:22;99613.32;;;0.42;42.01
80693;BME280;70055;39.436;-77.514;2024-02-04T03:51:50;99615.50;;;-0.60;43.99
80693;BME280;70055;39.436;-77.514;2024-02-04T03:54:18;99612.28;;;-0.30;42.86
80693;BME280;70055;39.436;-77.514;2024-02-04T03:56:46;99611.52;;;0.19;43.16
80693;BME280;70055;39.436;-77.514;2024-02-04T03:59:14;99611.87;;;0.36;42.41
80693;BME280;70055;39.436;-77.514;2024-02-04T04:01:47;99614.98;;;0.47;42.87
80693;BME280;70055;39.436;-77.514;2024-02-04T04:04:17;99621.29;;;0.02;44.46
80693;BME280;70055;39.436;-77.514;2024-02-04T04:06:46;99618.39;;;0.65;43.07
80693;BME280;70055;39.436;-77.514;2024-02-04T04:09:14;99610.22;;;0.71;42.03
80693;BME280;70055;39.436;-77.514;2024-02-04T04:11:42;99610.93;;;0.79;42.76
80693;BME280;70055;39.436;-77.514;2024-02-04T04:14:10;99608.35;;;0.36;42.53
80693;BME280;70055;39.436;-77.514;2024-02-04T04:16:37;99608.28;;;-0.50;44.29
80693;BME280;70055;39.436;-77.514;2024-02-04T04:19:06;99603.51;;;1.11;41.75
80693;BME280;70055;39.436;-77.514;2024-02-04T04:21:37;99604.18;;;0.58;42.57
80693;BME280;70055;39.436;-77.514;2024-02-04T04:24:06;99606.07;;;-0.20;44.68
80693;BME280;70055;39.436;-77.514;2024-02-04T04:26:34;99605.75;;;0.09;43.67
80693;BME280;70055;39.436;-77.514;2024-02-04T04:29:02;99595.25;;;0.55;42.10
80693;BME280;70055;39.436;-77.514;2024-02-04T04:31:36;99593.12;;;1.18;41.42
80693;BME280;70055;39.436;-77.514;2024-02-04T04:34:03;99594.15;;;0.33;42.08
80693;BME280;70055;39.436;-77.514;2024-02-04T04:36:31;99589.56;;;1.69;40.50
80693;BME280;70055;39.436;-77.514;2024-02-04T04:39:02;99592.75;;;0.85;41.60
80693;BME280;70055;39.436;-77.514;2024-02-04T04:41:29;99593.65;;;0.24;42.18
80693;BME280;70055;39.436;-77.514;2024-02-04T04:44:00;99595.93;;;0.73;42.13
80693;BME280;70055;39.436;-77.514;2024-02-04T04:46:28;99597.54;;;0.38;42.99
80693;BME280;70055;39.436;-77.514;2024-02-04T04:48:57;99594.18;;;0.57;42.16
80693;BME280;70055;39.436;-77.514;2024-02-04T04:51:26;99594.76;;;1.14;41.72
80693;BME280;70055;39.436;-77.514;2024-02-04T04:53:54;99594.21;;;1.23;41.07
80693;BME280;70055;39.436;-77.514;2024-02-04T04:56:22;99599.43;;;0.64;42.20
80693;BME280;70055;39.436;-77.514;2024-02-04T04:58:49;99598.11;;;1.28;40.94
80693;BME280;70055;39.436;-77.514;2024-02-04T05:01:17;99591.78;;;0.76;41.46
80693;BME280;70055;39.436;-77.514;2024-02-04T05:03:45;99593.66;;;1.16;40.69
80693;BME280;70055;39.436;-77.514;2024-02-04T05:06:14;99592.53;;;2.15;39.18
80693;BME280;70055;39.436;-77.514;2024-02-04T05:08:43;99595.70;;;0.13;41.41
80693;BME280;70055;39.436;-77.514;2024-02-04T05:11:11;99596.50;;;1.32;40.31
80693;BME280;70055;39.436;-77.514;2024-02-04T05:13:39;99603.86;;;-0.88;43.68
80693;BME280;70055;39.436;-77.514;2024-02-04T05:16:07;99603.84;;;-0.30;44.40
80693;BME280;70055;39.436;-77.514;2024-02-04T05:18:34;99604.34;;;0.19;43.12
80693;BME280;70055;39.436;-77.514;2024-02-04T05:21:03;99604.26;;;0.02;42.74
80693;BME280;70055;39.436;-77.514;2024-02-04T05:23:31;99611.28;;;-1.25;45.28
80693;BME280;70055;39.436;-77.514;2024-02-04T05:26:03;99607.95;;;-1.07;46.37
80693;BME280;70055;39.436;-77.514;2024-02-04T05:28:32;99603.16;;;-0.33;44.45
80693;BME280;70055;39.436;-77.514;2024-02-04T05:31:02;99604.34;;;0.28;43.39
80693;BME280;70055;39.436;-77.514;2024-02-04T05:33:30;99608.36;;;-0.49;45.20
80693;BME280;70055;39.436;-77.514;2024-02-04T05:36:00;99607.45;;;-1.07;45.78
80693;BME280;70055;39.436;-77.514;2024-02-04T05:38:28;99603.68;;;0.22;43.41
80693;BME280;70055;39.436;-77.514;2024-02-04T05:40:57;99603.97;;;0.67;43.39
80693;BME280;70055;39.436;-77.514;2024-02-04T05:43:25;99602.58;;;0.83;42.27
80693;BME280;70055;39.436;-77.514;2024-02-04T05:45:53;99600.47;;;1.35;41.20
80693;BME280;70055;39.436;-77.514;2024-02-04T05:48:21;99604.42;;;0.35;42.33
80693;BME280;70055;39.436;-77.514;2024-02-04T05:50:50;99610.35;;;-0.17;43.35
80693;BME280;70055;39.436;-77.514;2024-02-04T05:53:19;99603.34;;;0.23;42.63
80693;BME280;70055;39.436;-77.514;2024-02-04T05:55:47;99605.98;;;-0.05;43.32
80693;BME280;70055;39.436;-77.514;2024-02-04T05:58:17;99604.95;;;0.67;42.50
80693;BME280;70055;39.436;-77.514;2024-02-04T06:00:45;99606.30;;;0.41;42.61
80693;BME280;70055;39.436;-77.514;2024-02-04T06:03:13;99606.90;;;0.56;42.54
80693;BME280;70055;39.436;-77.514;2024-02-04T06:05:42;99608.80;;;0.15;42.97
80693;BME280;70055;39.436;-77.514;2024-02-04T06:08:10;99610.06;;;-0.16;43.78
80693;BME280;70055;39.436;-77.514;2024-02-04T06:10:38;99604.12;;;0.09;43.37
80693;BME280;70055;39.436;-77.514;2024-02-04T06:13:06;99605.48;;;0.19;42.94
80693;BME280;70055;39.436;-77.514;2024-02-04T06:15:33;99607.99;;;0.09;43.26
80693;BME280;70055;39.436;-77.514;2024-02-04T06:18:03;99606.87;;;0.37;43.19
80693;BME280;70055;39.436;-77.514;2024-02-04T06:20:30;99604.78;;;0.41;42.80
80693;BME280;70055;39.436;-77.514;2024-02-04T06:22:58;99605.36;;;-0.28;43.67
80693;BME280;70055;39.436;-77.514;2024-02-04T06:25:26;99604.81;;;-0.18;43.10
80693;BME280;70055;39.436;-77.514;2024-02-04T06:27:54;99601.64;;;-0.30;43.18
80693;BME280;70055;39.436;-77.514;2024-02-04T06:30:22;99596.48;;;-0.36;44.38
80693;BME280;70055;39.436;-77.514;2024-02-04T06:32:50;99590.91;;;-0.22;43.01
80693;BME280;70055;39.436;-77.514;2024-02-04T06:35:17;99588.82;;;-0.27;42.97
80693;BME280;70055;39.436;-77.514;2024-02-04T06:37:47;99584.74;;;0.73;41.35
80693;BME280;70055;39.436;-77.514;2024-02-04T06:40:15;99590.76;;;-0.96;44.47
80693;BME280;70055;39.436;-77.514;2024-02-04T06:42:45;99592.07;;;-2.06;46.90
80693;BME280;70055;39.436;-77.514;2024-02-04T06:45:13;99588.87;;;-0.39;44.83
80693;BME280;70055;39.436;-77.514;2024-02-04T06:47:44;99587.91;;;-0.32;43.39
80693;BME280;70055;39.436;-77.514;2024-02-04T06:50:12;99593.34;;;-0.17;44.04
80693;BME280;70055;39.436;-77.514;2024-02-04T06:52:41;99582.13;;;0.42;42.52
80693;BME280;70055;39.436;-77.514;2024-02-04T06:55:09;99585.19;;;-0.19;43.33
80693;BME280;70055;39.436;-77.514;2024-02-04T06:57:38;99580.14;;;0.49;42.12
80693;BME280;70055;39.436;-77.514;2024-02-04T07:00:06;99585.59;;;0.14;42.32
80693;BME280;70055;39.436;-77.514;2024-02-04T07:02:34;99582.05;;;-0.29;43.03
80693;BME280;70055;39.436;-77.514;2024-02-04T07:05:03;99580.11;;;0.43;42.59
80693;BME280;70055;39.436;-77.514;2024-02-04T07:07:32;99573.41;;;0.61;42.11
80693;BME280;70055;39.436;-77.514;2024-02-04T07:10:01;99576.10;;;-0.10;43.67
80693;BME280;70055;39.436;-77.514;2024-02-04T07:12:29;99573.55;;;0.15;42.44
80693;BME280;70055;39.436;-77.514;2024-02-04T07:14:57;99569.00;;;-0.09;42.25
80693;BME280;70055;39.436;-77.514;2024-02-04T07:17:25;99568.12;;;0.65;42.23
80693;BME280;70055;39.436;-77.514;2024-02-04T07:19:53;99568.87;;;-1.68;45.58
80693;BME280;70055;39.436;-77.514;2024-02-04T07:22:21;99567.59;;;-0.20;44.86
80693;BME280;70055;39.436;-77.514;2024-02-04T07:24:49;99569.37;;;-0.38;44.36
80693;BME280;70055;39.436;-77.514;2024-02-04T07:27:16;99566.26;;;0.36;42.96
80693;BME280;70055;39.436;-77.514;2024-02-04T07:29:45;99563.42;;;0.04;42.92
80693;BME280;70055;39.436;-77.514;2024-02-04T07:32:13;99563.96;;;0.34;43.33
80693;BME280;70055;39.436;-77.514;2024-02-04T07:34:40;99567.66;;;-0.41;43.69
80693;BME280;70055;39.436;-77.514;2024-02-04T07:37:09;99561.57;;;-0.11;43.49
80693;BME280;70055;39.436;-77.514;2024-02-04T07:39:39;99559.32;;;-0.21;44.24
80693;BME280;70055;39.436;-77.514;2024-02-04T07:42:08;99558.75;;;-0.98;45.51
80693;BME280;70055;39.436;-77.514;2024-02-04T07:44:37;99546.92;;;0.27;43.26
80693;BME280;70055;39.436;-77.514;2024-02-04T07:47:05;99542.79;;;-0.09;42.88
80693;BME280;70055;39.436;-77.514;2024-02-04T07:49:32;99540.39;;;0.03;42.30
80693;BME280;70055;39.436;-77.514;2024-02-04T07:52:00;99538.53;;;0.22;41.82
80693;BME280;70055;39.436;-77.514;2024-02-04T07:54:29;99538.06;;;-0.18;43.01
80693;BME280;70055;39.436;-77.514;2024-02-04T07:56:57;99539.35;;;-0.11;42.61
80693;BME280;70055;39.436;-77.514;2024-02-04T07:59:25;99539.32;;;-0.03;42.45
80693;BME280;70055;39.436;-77.514;2024-02-04T08:01:53;99540.08;;;-0.72;43.13
80693;BME280;70055;39.436;-77.514;2024-02-04T08:04:22;99535.09;;;-0.02;42.82
80693;BME280;70055;39.436;-77.514;2024-02-04T08:06:51;99537.08;;;-1.93;44.74
80693;BME280;70055;39.436;-77.514;2024-02-04T08:09:21;99532.97;;;-1.91;46.04
80693;BME280;70055;39.436;-77.514;2024-02-04T08:11:49;99537.17;;;-2.14;46.12
80693;BME280;70055;39.436;-77.514;2024-02-04T08:14:24;99528.34;;;-0.94;44.50
80693;BME280;70055;39.436;-77.514;2024-02-04T08:16:52;99531.51;;;-1.34;46.24
80693;BME280;70055;39.436;-77.514;2024-02-04T08:19:20;99531.51;;;-1.54;47.83
80693;BME280;70055;39.436;-77.514;2024-02-04T08:21:49;99529.93;;;-1.01;45.73
80693;BME280;70055;39.436;-77.514;2024-02-04T08:24:17;99523.64;;;-1.35;46.61
80693;BME280;70055;39.436;-77.514;2024-02-04T08:26:48;99526.36;;;-1.68;46.87
80693;BME280;70055;39.436;-77.514;2024-02-04T08:29:17;99522.81;;;-1.03;45.19
80693;BME280;70055;39.436;-77.514;2024-02-04T08:31:46;99525.04;;;-0.68;44.53
80693;BME280;70055;39.436;-77.514;2024-02-04T08:34:15;99518.08;;;-0.18;43.75
80693;BME280;70055;39.436;-77.514;2024-02-04T08:36:43;99519.53;;;-1.11;44.61
80693;BME280;70055;39.436;-77.514;2024-02-04T08:39:10;99518.63;;;-1.25;44.09
80693;BME280;70055;39.436;-77.514;2024-02-04T08:41:38;99517.32;;;-0.87;43.98
80693;BME280;70055;39.436;-77.514;2024-02-04T08:44:09;99522.30;;;-0.63;43.14
80693;BME280;70055;39.436;-77.514;2024-02-04T08:46:38;99521.67;;;-0.18;41.99
80693;BME280;70055;39.436;-77.514;2024-02-04T08:49:06;99518.37;;;0.33;41.35
80693;BME280;70055;39.436;-77.514;2024-02-04T08:51:34;99520.78;;;-1.41;43.64
80693;BME280;70055;39.436;-77.514;2024-02-04T08:54:01;99516.04;;;-0.66;43.63
80693;BME280;70055;39.436;-77.514;2024-02-04T08:56:29;99508.92;;;-0.20;42.27
80693;BME280;70055;39.436;-77.514;2024-02-04T08:58:58;99511.58;;;-1.78;44.35
80693;BME280;70055;39.436;-77.514;2024-02-04T09:01:26;99510.52;;;-1.75;44.87
80693;BME280;70055;39.436;-77.514;2024-02-04T09:03:55;99507.61;;;-0.30;41.89
80693;BME280;70055;39.436;-77.514;2024-02-04T09:06:23;99503.43;;;-0.09;41.71
80693;BME280;70055;39.436;-77.514;2024-02-04T09:08:50;99513.29;;;-0.75;43.37
80693;BME280;70055;39.436;-77.514;2024-02-04T09:11:19;99508.71;;;-0.22;40.85
80693;BME280;70055;39.436;-77.514;2024-02-04T09:13:46;99515.57;;;-1.09;42.77
80693;BME280;70055;39.436;-77.514;2024-02-04T09:16:16;99511.18;;;-0.41;41.95
80693;BME280;70055;39.436;-77.514;2024-02-04T09:18:44;99514.27;;;-0.71;41.89
80693;BME280;70055;39.436;-77.514;2024-02-04T09:21:15;99516.35;;;-0.51;41.41
80693;BME280;70055;39.436;-77.514;2024-02-04T09:23:47;99509.23;;;0.36;40.12
80693;BME280;70055;39.436;-77.514;2024-02-04T09:26:15;99515.89;;;0.46;39.72
80693;BME280;70055;39.436;-77.514;2024-02-04T09:28:43;99521.36;;;-0.01;40.55
80693;BME280;70055;39.436;-77.514;2024-02-04T09:31:11;99524.12;;;0.29;40.44
80693;BME280;70055;39.436;-77.514;2024-02-04T09:33:39;99534.09;;;-1.00;41.86
80693;BME280;70055;39.436;-77.514;2024-02-04T09:36:07;99537.57;;;-0.66;41.12
80693;BME280;70055;39.436;-77.514;2024-02-04T09:38:35;99538.65;;;-0.69;41.48
80693;BME280;70055;39.436;-77.514;2024-02-04T09:41:03;99535.94;;;-0.46;40.28
80693;BME280;70055;39.436;-77.514;2024-02-04T09:43:33;99535.52;;;0.35;39.03
80693;BME280;70055;39.436;-77.514;2024-02-04T09:46:03;99540.56;;;0.34;39.18
80693;BME280;70055;39.436;-77.514;2024-02-04T09:48:32;99542.26;;;0.22;39.35
80693;BME280;70055;39.436;-77.514;2024-02-04T09:51:00;99546.85;;;-0.48;40.52
80693;BME280;70055;39.436;-77.514;2024-02-04T09:53:33;99545.10;;;0.06;39.32
80693;BME280;70055;39.436;-77.514;2024-02-04T09:56:03;99551.76;;;-0.95;42.25
80693;BME280;70055;39.436;-77.514;2024-02-04T09:58:31;99543.98;;;0.61;39.43
80693;BME280;70055;39.436;-77.514;2024-02-04T10:01:01;99544.86;;;0.81;38.54
80693;BME280;70055;39.436;-77.514;2024-02-04T10:03:30;99548.25;;;-0.36;40.25
80693;BME280;70055;39.436;-77.514;2024-02-04T10:05:58;99542.34;;;-0.03;40.35
80693;BME280;70055;39.436;-77.514;2024-02-04T10:08:25;99545.37;;;-0.98;41.12
80693;BME280;70055;39.436;-77.514;2024-02-04T10:10:54;99547.65;;;-0.44;41.23
80693;BME280;70055;39.436;-77.514;2024-02-04T10:13:22;99547.52;;;-0.22;40.67
80693;BME280;70055;39.436;-77.514;2024-02-04T10:15:51;99552.99;;;-0.56;41.67
80693;BME280;70055;39.436;-77.514;2024-02-04T10:18:19;99553.66;;;0.10;40.71
80693;BME280;70055;39.436;-77.514;2024-02-04T10:20:48;99557.79;;;-0.45;41.64
80693;BME280;70055;39.436;-77.514;2024-02-04T10:23:16;99559.86;;;-0.41;41.68
80693;BME280;70055;39.436;-77.514;2024-02-04T10:25:44;99559.60;;;-0.36;41.07
80693;BME280;70055;39.436;-77.514;2024-02-04T10:28:11;99559.27;;;0.40;40.01
80693;BME280;70055;39.436;-77.514;2024-02-04T10:30:39;99563.72;;;0.24;40.13
80693;BME280;70055;39.436;-77.514;2024-02-04T10:33:08;99570.02;;;0.30;41.00
80693;BME280;70055;39.436;-77.514;2024-02-04T10:35:35;99573.35;;;0.44;41.10
80693;BME280;70055;39.436;-77.514;2024-02-04T10:38:03;99575.89;;;-0.57;41.83
80693;BME280;70055;39.436;-77.514;2024-02-04T10:40:31;99576.51;;;0.05;41.51
80693;BME280;70055;39.436;-77.514;2024-02-04T10:43:04;99572.27;;;-0.04;41.67
80693;BME280;70055;39.436;-77.514;2024-02-04T10:45:33;99579.69;;;-1.95;44.26
80693;BME280;70055;39.436;-77.514;2024-02-04T10:48:05;99576.86;;;-0.68;43.49
80693;BME280;70055;39.436;-77.514;2024-02-04T10:50:35;99577.05;;;-1.30;44.07
80693;BME280;70055;39.436;-77.514;2024-02-04T10:53:06;99577.38;;;-2.07;45.28
80693;BME280;70055;39.436;-77.514;2024-02-04T10:55:41;99575.93;;;-1.20;44.60
80693;BME280;70055;39.436;-77.514;2024-02-04T10:58:10;99577.65;;;-1.48;44.78
80693;BME280;70055;39.436;-77.514;2024-02-04T11:00:38;99576.91;;;-1.65;44.79
80693;BME280;70055;39.436;-77.514;2024-02-04T11:03:08;99578.39;;;-1.50;45.08
80693;BME280;70055;39.436;-77.514;2024-02-04T11:05:36;99587.27;;;-3.30;48.66
80693;BME280;70055;39.436;-77.514;2024-02-04T11:08:07;99579.54;;;-1.55;45.98
80693;BME280;70055;39.436;-77.514;2024-02-04T11:10:39;99575.33;;;-1.36;45.63
80693;BME280;70055;39.436;-77.514;2024-02-04T11:13:09;99573.38;;;-1.96;45.85
80693;BME280;70055;39.436;-77.514;2024-02-04T11:15:42;99572.44;;;-0.88;44.36
80693;BME280;70055;39.436;-77.514;2024-02-04T11:18:30;99576.46;;;-1.00;44.61
80693;BME280;70055;39.436;-77.514;2024-02-04T11:21:18;99582.13;;;-0.68;43.50
80693;BME280;70055;39.436;-77.514;2024-02-04T11:24:04;99590.74;;;-0.56;43.44
80693;BME280;70055;39.436;-77.514;2024-02-04T11:26:38;99595.26;;;-1.14;44.14
80693;BME280;70055;39.436;-77.514;2024-02-04T11:29:06;99593.42;;;-0.04;42.24
80693;BME280;70055;39.436;-77.514;2024-02-04T11:31:33;99601.19;;;-0.72;43.39
80693;BME280;70055;39.436;-77.514;2024-02-04T11:34:01;99599.39;;;-0.54;43.56
80693;BME280;70055;39.436;-77.514;2024-02-04T11:36:37;99595.30;;;-0.10;42.30
80693;BME280;70055;39.436;-77.514;2024-02-04T11:39:12;99601.00;;;-1.37;43.85
80693;BME280;70055;39.436;-77.514;2024-02-04T11:41:46;99598.28;;;-0.44;42.90
80693;BME280;70055;39.436;-77.514;2024-02-04T11:44:20;99595.25;;;-0.21;42.70
80693;BME280;70055;39.436;-77.514;2024-02-04T11:46:51;99596.30;;;-0.44;42.78
80693;BME280;70055;39.436;-77.514;2024-02-04T11:49:19;99592.13;;;0.49;41.05
80693;BME280;70055;39.436;-77.514;2024-02-04T11:51:51;99596.37;;;0.09;41.33
80693;BME280;70055;39.436;-77.514;2024-02-04T11:54:21;99600.30;;;-0.67;42.98
80693;BME280;70055;39.436;-77.514;2024-02-04T11:56:49;99602.16;;;-1.51;44.60
80693;BME280;70055;39.436;-77.514;2024-02-04T11:59:18;99602.61;;;-1.79;44.82
80693;BME280;70055;39.436;-77.514;2024-02-04T12:01:46;99600.61;;;-1.99;45.93
80693;BME280;70055;39.436;-77.514;2024-02-04T12:04:16;99598.07;;;-1.08;44.65
80693;BME280;70055;39.436;-77.514;2024-02-04T12:06:45;99592.80;;;-1.04;44.64
80693;BME280;70055;39.436;-77.514;2024-02-04T12:09:17;99589.52;;;-1.46;44.89
80693;BME280;70055;39.436;-77.514;2024-02-04T12:11:45;99593.22;;;-1.58;45.61
80693;BME280;70055;39.436;-77.514;2024-02-04T12:14:15;99592.46;;;-1.57;45.15
80693;BME280;70055;39.436;-77.514;2024-02-04T12:16:44;99592.60;;;-1.07;44.21
80693;BME280;70055;39.436;-77.514;2024-02-04T12:19:13;99594.09;;;-1.58;45.56
80693;BME280;70055;39.436;-77.514;2024-02-04T12:21:41;99590.90;;;-1.31;45.89
80693;BME280;70055;39.436;-77.514;2024-02-04T12:24:09;99590.70;;;-1.21;46.07
80693;BME280;70055;39.436;-77.514;2024-02-04T12:26:37;99597.43;;;-1.27;45.62
80693;BME280;70055;39.436;-77.514;2024-02-04T12:29:05;99598.93;;;-1.28;45.33
80693;BME280;70055;39.436;-77.514;2024-02-04T12:31:34;99599.41;;;-1.23;45.29
80693;BME280;70055;39.436;-77.514;2024-02-04T12:34:02;99602.14;;;-0.74;44.15
80693;BME280;70055;39.436;-77.514;2024-02-04T12:36:31;99601.75;;;-0.57;44.35
80693;BME280;70055;39.436;-77.514;2024-02-04T12:39:01;99598.48;;;-1.12;45.08
80693;BME280;70055;39.436;-77.514;2024-02-04T12:41:30;99597.05;;;-1.20;45.28
80693;BME280;70055;39.436;-77.514;2024-02-04T12:43:59;99597.86;;;-0.81;44.72
80693;BME280;70055;39.436;-77.514;2024-02-04T12:46:31;99602.29;;;-0.82;44.83
80693;BME280;70055;39.436;-77.514;2024-02-04T12:48:59;99599.18;;;0.32;42.78
80693;BME280;70055;39.436;-77.514;2024-02-04T12:51:29;99602.92;;;0.28;42.60
80693;BME280;70055;39.436;-77.514;2024-02-04T12:54:07;99603.68;;;-0.61;43.41